sensor_id;sensor_type;location;lat;lon;timestamp;pressure;altitude;pressure_sealevel;temperature;humidity
15314;BME280;7757;52.626;4.746;2023-07-16T00:00:51;100455.84;;;22.73;55.61
15314;BME280;7757;52.626;4.746;2023-07-16T00:03:16;100461.88;;;22.75;55.80
15314;BME280;7757;52.626;4.746;2023-07-16T00:05:42;100465.63;;;22.95;55.19
15314;BME280;7757;52.626;4.746;2023-07-16T00:08:07;100457.19;;;22.91;55.59
15314;BME280;7757;52.626;4.746;2023-07-16T00:10:36;100456.34;;;23.01;54.94
15314;BME280;7757;52.626;4.746;2023-07-16T00:13:03;100444.34;;;22.92;55.12
15314;BME280;7757;52.626;4.746;2023-07-16T00:15:29;100460.19;;;22.90;55.29
15314;BME280;7757;52.626;4.746;2023-07-16T00:17:54;100381.97;;;22.50;55.18
15314;BME280;7757;52.626;4.746;2023-07-16T00:20:20;100439.50;;;22.78;54.93
15314;BME280;7757;52.626;4.746;2023-07-16T00:22:46;100460.75;;;22.82;54.86
15314;BME280;7757;52.626;4.746;2023-07-16T00:25:11;100437.59;;;22.74;54.87
15314;BME280;7757;52.626;4.746;2023-07-16T00:27:36;100439.50;;;22.78;55.07
15314;BME280;7757;52.626;4.746;2023-07-16T00:30:03;100452.03;;;22.85;55.07
15314;BME280;7757;52.626;4.746;2023-07-16T00:32:28;100387.75;;;22.43;55.16
15314;BME280;7757;52.626;4.746;2023-07-16T00:34:54;100443.28;;;22.93;54.95
15314;BME280;7757;52.626;4.746;2023-07-16T00:37:19;100430.75;;;22.76;55.04
15314;BME280;7757;52.626;4.746;2023-07-16T00:39:45;100428.31;;;22.80;55.21
15314;BME280;7757;52.626;4.746;2023-07-16T00:42:10;100447.66;;;22.94;55.02
15314;BME280;7757;52.626;4.746;2023-07-16T00:47:01;100447.94;;;22.87;55.46
15314;BME280;7757;52.626;4.746;2023-07-16T00:49:27;100417.69;;;22.63;55.50
15314;BME280;7757;52.626;4.746;2023-07-16T00:51:52;100403.78;;;22.65;55.08
15314;BME280;7757;52.626;4.746;2023-07-16T00:54:19;100425.84;;;22.84;54.87
15314;BME280;7757;52.626;4.746;2023-07-16T00:56:45;100438.91;;;22.97;55.09
15314;BME280;7757;52.626;4.746;2023-07-16T00:59:10;100428.03;;;22.76;55.68
15314;BME280;7757;52.626;4.746;2023-07-16T01:01:37;100431.88;;;22.75;55.23
15314;BME280;7757;52.626;4.746;2023-07-16T01:04:04;100453.13;;;22.84;54.89
15314;BME280;7757;52.626;4.746;2023-07-16T01:09:15;100435.13;;;22.67;55.45
15314;BME280;7757;52.626;4.746;2023-07-16T01:11:44;100420.16;;;22.70;55.20
15314;BME280;7757;52.626;4.746;2023-07-16T01:14:12;100442.72;;;22.86;55.45
15314;BME280;7757;52.626;4.746;2023-07-16T01:16:38;100444.13;;;22.78;55.10
15314;BME280;7757;52.626;4.746;2023-07-16T01:19:03;100446.56;;;22.85;54.88
15314;BME280;7757;52.626;4.746;2023-07-16T01:21:35;100422.31;;;22.48;54.95
15314;BME280;7757;52.626;4.746;2023-07-16T01:24:36;100458.06;;;22.66;55.01
15314;BME280;7757;52.626;4.746;2023-07-16T01:30:02;100424.50;;;22.61;55.11
15314;BME280;7757;52.626;4.746;2023-07-16T01:32:30;100440.59;;;22.77;55.41
15314;BME280;7757;52.626;4.746;2023-07-16T01:34:57;100466.22;;;22.71;55.61
15314;BME280;7757;52.626;4.746;2023-07-16T01:37:22;100460.78;;;22.66;55.70
15314;BME280;7757;52.626;4.746;2023-07-16T01:39:51;100466.50;;;22.70;55.18
15314;BME280;7757;52.626;4.746;2023-07-16T01:42:16;100441.94;;;22.60;55.60
15314;BME280;7757;52.626;4.746;2023-07-16T01:44:42;100429.16;;;22.55;55.52
15314;BME280;7757;52.626;4.746;2023-07-16T01:47:15;100451.22;;;22.69;55.72
15314;BME280;7757;52.626;4.746;2023-07-16T01:49:46;100468.38;;;22.44;55.42
15314;BME280;7757;52.626;4.746;2023-07-16T01:52:12;100460.75;;;22.76;55.20
15314;BME280;7757;52.626;4.746;2023-07-16T01:54:38;100420.16;;;22.55;55.87
15314;BME280;7757;52.626;4.746;2023-07-16T01:57:03;100450.94;;;22.60;55.71
15314;BME280;7757;52.626;4.746;2023-07-16T01:59:29;100459.66;;;22.67;55.45
15314;BME280;7757;52.626;4.746;2023-07-16T02:01:54;100443.88;;;22.69;55.55
15314;BME280;7757;52.626;4.746;2023-07-16T02:04:20;100461.88;;;22.65;56.29
15314;BME280;7757;52.626;4.746;2023-07-16T02:06:46;100451.50;;;22.72;55.97
15314;BME280;7757;52.626;4.746;2023-07-16T02:09:13;100455.03;;;22.68;55.56
15314;BME280;7757;52.626;4.746;2023-07-16T02:11:38;100444.13;;;22.68;56.22
15314;BME280;7757;52.626;4.746;2023-07-16T02:14:04;100450.94;;;22.70;55.87
15314;BME280;7757;52.626;4.746;2023-07-16T02:16:30;100446.88;;;22.73;55.59
15314;BME280;7757;52.626;4.746;2023-07-16T02:18:55;100453.41;;;22.57;56.04
15314;BME280;7757;52.626;4.746;2023-07-16T02:21:20;100434.34;;;22.67;56.10
15314;BME280;7757;52.626;4.746;2023-07-16T02:23:47;100458.59;;;22.68;55.99
15314;BME280;7757;52.626;4.746;2023-07-16T02:26:12;100438.41;;;22.54;55.95
15314;BME280;7757;52.626;4.746;2023-07-16T02:28:38;100452.84;;;22.60;55.98
15314;BME280;7757;52.626;4.746;2023-07-16T02:31:03;100443.03;;;22.64;55.56
15314;BME280;7757;52.626;4.746;2023-07-16T02:33:32;100461.88;;;22.65;55.90
15314;BME280;7757;52.626;4.746;2023-07-16T02:35:58;100464.56;;;22.60;56.57
15314;BME280;7757;52.626;4.746;2023-07-16T02:38:23;100426.41;;;22.35;56.63
15314;BME280;7757;52.626;4.746;2023-07-16T02:40:50;100459.13;;;22.55;56.18
15314;BME280;7757;52.626;4.746;2023-07-16T02:43:15;100447.97;;;22.52;56.26
15314;BME280;7757;52.626;4.746;2023-07-16T02:45:41;100450.13;;;22.55;55.92
15314;BME280;7757;52.626;4.746;2023-07-16T02:48:08;100456.13;;;22.57;56.10
15314;BME280;7757;52.626;4.746;2023-07-16T02:50:34;100466.78;;;22.43;56.67
15314;BME280;7757;52.626;4.746;2023-07-16T02:53:03;100465.94;;;22.63;56.33
15314;BME280;7757;52.626;4.746;2023-07-16T02:55:28;100470.03;;;22.60;56.16
15314;BME280;7757;52.626;4.746;2023-07-16T02:57:53;100434.03;;;22.38;56.37
15314;BME280;7757;52.626;4.746;2023-07-16T03:00:21;100441.69;;;22.41;56.23
15314;BME280;7757;52.626;4.746;2023-07-16T03:02:46;100447.94;;;22.47;56.03
15314;BME280;7757;52.626;4.746;2023-07-16T03:05:11;100486.09;;;22.57;56.25
15314;BME280;7757;52.626;4.746;2023-07-16T03:07:38;100458.56;;;22.53;55.85
15314;BME280;7757;52.626;4.746;2023-07-16T03:10:04;100434.88;;;22.39;56.38
15314;BME280;7757;52.626;4.746;2023-07-16T03:12:35;100465.13;;;22.52;57.09
15314;BME280;7757;52.626;4.746;2023-07-16T03:15:01;100438.94;;;22.26;57.18
15314;BME280;7757;52.626;4.746;2023-07-16T03:17:27;100475.75;;;22.59;56.95
15314;BME280;7757;52.626;4.746;2023-07-16T03:19:54;100496.44;;;22.50;56.38
15314;BME280;7757;52.626;4.746;2023-07-16T03:22:19;100486.38;;;22.60;56.41
15314;BME280;7757;52.626;4.746;2023-07-16T03:24:45;100469.50;;;22.28;56.39
15314;BME280;7757;52.626;4.746;2023-07-16T03:27:11;100494.84;;;22.44;56.58
15314;BME280;7757;52.626;4.746;2023-07-16T03:29:37;100510.38;;;22.58;56.54
15314;BME280;7757;52.626;4.746;2023-07-16T03:32:04;100506.56;;;22.54;56.50
15314;BME280;7757;52.626;4.746;2023-07-16T03:34:29;100501.09;;;22.44;56.52
15314;BME280;7757;52.626;4.746;2023-07-16T03:36:55;100509.81;;;22.56;56.09
15314;BME280;7757;52.626;4.746;2023-07-16T03:39:21;100507.09;;;22.56;56.09
15314;BME280;7757;52.626;4.746;2023-07-16T03:41:47;100510.66;;;22.52;56.20
15314;BME280;7757;52.626;4.746;2023-07-16T03:44:12;100511.47;;;22.52;56.13
15314;BME280;7757;52.626;4.746;2023-07-16T03:46:38;100491.84;;;22.40;56.34
15314;BME280;7757;52.626;4.746;2023-07-16T03:49:07;100495.66;;;22.49;56.85
15314;BME280;7757;52.626;4.746;2023-07-16T03:51:34;100492.34;;;22.32;56.90
15314;BME280;7757;52.626;4.746;2023-07-16T03:54:01;100499.19;;;22.40;56.74
15314;BME280;7757;52.626;4.746;2023-07-16T03:56:26;100473.03;;;22.29;56.62
15314;BME280;7757;52.626;4.746;2023-07-16T03:58:52;100507.66;;;22.43;57.03
15314;BME280;7757;52.626;4.746;2023-07-16T04:01:17;100475.22;;;22.37;56.76
15314;BME280;7757;52.626;4.746;2023-07-16T04:03:43;100491.03;;;22.35;56.80
15314;BME280;7757;52.626;4.746;2023-07-16T04:06:09;100518.81;;;22.47;56.20
15314;BME280;7757;52.626;4.746;2023-07-16T04:08:36;100496.44;;;22.30;56.84
15314;BME280;7757;52.626;4.746;2023-07-16T04:11:03;100528.63;;;22.43;56.75
15314;BME280;7757;52.626;4.746;2023-07-16T04:13:29;100519.91;;;22.51;57.16
15314;BME280;7757;52.626;4.746;2023-07-16T04:15:54;100506.00;;;22.42;56.62
15314;BME280;7757;52.626;4.746;2023-07-16T04:18:29;100523.19;;;22.38;56.97
15314;BME280;7757;52.626;4.746;2023-07-16T04:20:55;100530.53;;;22.42;56.74
15314;BME280;7757;52.626;4.746;2023-07-16T04:23:22;100519.63;;;22.42;56.91
15314;BME280;7757;52.626;4.746;2023-07-16T04:25:51;100520.72;;;22.36;56.85
15314;BME280;7757;52.626;4.746;2023-07-16T04:28:17;100523.97;;;22.33;56.67
15314;BME280;7757;52.626;4.746;2023-07-16T04:30:42;100511.44;;;22.17;57.17
15314;BME280;7757;52.626;4.746;2023-07-16T04:33:07;100532.72;;;22.50;56.65
15314;BME280;7757;52.626;4.746;2023-07-16T04:35:33;100493.72;;;22.30;56.70
15314;BME280;7757;52.626;4.746;2023-07-16T04:37:59;100535.44;;;22.45;56.55
15314;BME280;7757;52.626;4.746;2023-07-16T04:40:24;100528.09;;;22.41;56.77
15314;BME280;7757;52.626;4.746;2023-07-16T04:42:55;100527.28;;;22.40;56.57
15314;BME280;7757;52.626;4.746;2023-07-16T04:45:23;100540.63;;;22.52;56.55
15314;BME280;7757;52.626;4.746;2023-07-16T04:47:49;100545.00;;;22.38;57.27
15314;BME280;7757;52.626;4.746;2023-07-16T04:50:15;100555.56;;;22.29;57.27
15314;BME280;7757;52.626;4.746;2023-07-16T04:52:40;100502.97;;;22.18;56.84
15314;BME280;7757;52.626;4.746;2023-07-16T04:55:06;100539.00;;;22.41;56.81
15314;BME280;7757;52.626;4.746;2023-07-16T04:57:32;100498.63;;;22.12;57.35
15314;BME280;7757;52.626;4.746;2023-07-16T04:59:58;100543.63;;;22.50;56.95
15314;BME280;7757;52.626;4.746;2023-07-16T05:02:24;100499.44;;;22.18;56.57
15314;BME280;7757;52.626;4.746;2023-07-16T05:04:50;100550.72;;;22.51;57.11
15314;BME280;7757;52.626;4.746;2023-07-16T05:07:15;100565.16;;;22.52;57.03
15314;BME280;7757;52.626;4.746;2023-07-16T05:09:42;100565.13;;;22.47;56.92
15314;BME280;7757;52.626;4.746;2023-07-16T05:12:08;100531.34;;;22.22;57.20
15314;BME280;7757;52.626;4.746;2023-07-16T05:14:47;100555.34;;;22.51;56.59
15314;BME280;7757;52.626;4.746;2023-07-16T05:17:13;100534.63;;;22.50;56.67
15314;BME280;7757;52.626;4.746;2023-07-16T05:19:39;100551.50;;;22.42;56.40
15314;BME280;7757;52.626;4.746;2023-07-16T05:22:05;100582.03;;;22.34;57.00
15314;BME280;7757;52.626;4.746;2023-07-16T05:24:31;100540.31;;;22.18;56.67
15314;BME280;7757;52.626;4.746;2023-07-16T05:26:57;100576.59;;;22.44;57.33
15314;BME280;7757;52.626;4.746;2023-07-16T05:29:22;100525.88;;;22.22;57.16
15314;BME280;7757;52.626;4.746;2023-07-16T05:31:48;100598.69;;;22.52;56.72
15314;BME280;7757;52.626;4.746;2023-07-16T05:34:13;100597.59;;;22.43;57.27
15314;BME280;7757;52.626;4.746;2023-07-16T05:36:41;100578.47;;;22.33;57.46
15314;BME280;7757;52.626;4.746;2023-07-16T05:39:07;100600.34;;;22.58;56.86
15314;BME280;7757;52.626;4.746;2023-07-16T05:41:33;100586.16;;;22.51;56.71
15314;BME280;7757;52.626;4.746;2023-07-16T05:43:59;100607.13;;;22.51;57.03
15314;BME280;7757;52.626;4.746;2023-07-16T05:46:24;100608.25;;;22.55;57.21
15314;BME280;7757;52.626;4.746;2023-07-16T05:48:49;100566.22;;;22.36;56.47
15314;BME280;7757;52.626;4.746;2023-07-16T05:51:15;100597.66;;;22.84;55.98
15314;BME280;7757;52.626;4.746;2023-07-16T05:53:42;100622.75;;;22.96;56.05
15314;BME280;7757;52.626;4.746;2023-07-16T05:56:07;100599.00;;;22.86;56.31
15314;BME280;7757;52.626;4.746;2023-07-16T05:58:32;100606.66;;;22.84;56.08
15314;BME280;7757;52.626;4.746;2023-07-16T06:00:57;100608.03;;;22.82;56.17
15314;BME280;7757;52.626;4.746;2023-07-16T06:03:23;100617.84;;;22.98;55.65
15314;BME280;7757;52.626;4.746;2023-07-16T06:05:48;100602.28;;;22.68;55.88
15314;BME280;7757;52.626;4.746;2023-07-16T06:10:39;100608.84;;;22.82;55.89
15314;BME280;7757;52.626;4.746;2023-07-16T06:13:05;100597.09;;;22.71;56.01
15314;BME280;7757;52.626;4.746;2023-07-16T06:15:30;100602.28;;;22.68;55.97
15314;BME280;7757;52.626;4.746;2023-07-16T06:17:57;100614.56;;;22.86;56.04
15314;BME280;7757;52.626;4.746;2023-07-16T06:20:22;100623.03;;;23.04;55.76
15314;BME280;7757;52.626;4.746;2023-07-16T06:22:50;100626.56;;;23.20;55.55
15314;BME280;7757;52.626;4.746;2023-07-16T06:25:16;100628.75;;;23.08;55.40
15314;BME280;7757;52.626;4.746;2023-07-16T06:27:42;100629.03;;;22.96;56.25
15314;BME280;7757;52.626;4.746;2023-07-16T06:30:08;100654.66;;;22.90;56.29
15314;BME280;7757;52.626;4.746;2023-07-16T06:32:33;100655.22;;;22.87;56.45
15314;BME280;7757;52.626;4.746;2023-07-16T06:34:59;100640.50;;;22.93;56.97
15314;BME280;7757;52.626;4.746;2023-07-16T06:37:24;100635.31;;;23.02;56.03
15314;BME280;7757;52.626;4.746;2023-07-16T06:39:50;100649.47;;;23.04;56.31
15314;BME280;7757;52.626;4.746;2023-07-16T06:42:16;100633.91;;;22.94;56.33
15314;BME280;7757;52.626;4.746;2023-07-16T06:44:44;100650.56;;;22.83;57.05
15314;BME280;7757;52.626;4.746;2023-07-16T06:47:10;100659.03;;;23.06;56.66
15314;BME280;7757;52.626;4.746;2023-07-16T06:49:35;100656.03;;;22.93;56.94
15314;BME280;7757;52.626;4.746;2023-07-16T06:52:03;100662.00;;;22.79;56.93
15314;BME280;7757;52.626;4.746;2023-07-16T06:54:30;100667.47;;;22.85;56.75
15314;BME280;7757;52.626;4.746;2023-07-16T06:56:58;100670.47;;;22.98;56.56
15314;BME280;7757;52.626;4.746;2023-07-16T06:59:23;100690.69;;;23.12;57.11
15314;BME280;7757;52.626;4.746;2023-07-16T07:01:52;100677.31;;;23.21;55.98
15314;BME280;7757;52.626;4.746;2023-07-16T07:04:17;100648.69;;;23.08;56.46
15314;BME280;7757;52.626;4.746;2023-07-16T07:06:43;100676.75;;;23.24;56.10
15314;BME280;7757;52.626;4.746;2023-07-16T07:09:08;100693.41;;;23.27;56.60
15314;BME280;7757;52.626;4.746;2023-07-16T07:11:34;100687.13;;;23.22;56.31
15314;BME280;7757;52.626;4.746;2023-07-16T07:13:59;100692.88;;;23.10;57.01
15314;BME280;7757;52.626;4.746;2023-07-16T07:16:26;100686.31;;;23.11;56.82
15314;BME280;7757;52.626;4.746;2023-07-16T07:18:51;100628.16;;;22.70;57.12
15314;BME280;7757;52.626;4.746;2023-07-16T07:21:17;100691.50;;;23.03;57.37
15314;BME280;7757;52.626;4.746;2023-07-16T07:23:42;100701.59;;;23.22;57.04
15314;BME280;7757;52.626;4.746;2023-07-16T07:26:07;100707.88;;;23.33;56.75
15314;BME280;7757;52.626;4.746;2023-07-16T07:28:33;100706.25;;;23.42;56.57
15314;BME280;7757;52.626;4.746;2023-07-16T07:30:59;100663.13;;;23.04;57.05
15314;BME280;7757;52.626;4.746;2023-07-16T07:33:24;100707.06;;;23.38;56.69
15314;BME280;7757;52.626;4.746;2023-07-16T07:35:53;100677.03;;;23.12;56.31
15314;BME280;7757;52.626;4.746;2023-07-16T07:38:19;100715.56;;;23.41;56.56
15314;BME280;7757;52.626;4.746;2023-07-16T07:40:44;100691.50;;;23.28;55.76
15314;BME280;7757;52.626;4.746;2023-07-16T07:43:10;100724.81;;;23.25;55.88
15314;BME280;7757;52.626;4.746;2023-07-16T07:45:35;100709.25;;;23.20;56.04
15314;BME280;7757;52.626;4.746;2023-07-16T07:48:01;100724.25;;;23.13;55.85
15314;BME280;7757;52.626;4.746;2023-07-16T07:50:27;100743.88;;;23.15;56.69
15314;BME280;7757;52.626;4.746;2023-07-16T07:52:54;100739.25;;;23.10;57.05
15314;BME280;7757;52.626;4.746;2023-07-16T07:55:19;100714.94;;;23.09;56.45
15314;BME280;7757;52.626;4.746;2023-07-16T07:57:45;100725.63;;;23.30;55.82
15314;BME280;7757;52.626;4.746;2023-07-16T08:00:10;100719.88;;;23.22;55.86
15314;BME280;7757;52.626;4.746;2023-07-16T08:02:37;100733.81;;;23.25;56.08
15314;BME280;7757;52.626;4.746;2023-07-16T08:05:03;100732.97;;;23.30;56.38
15314;BME280;7757;52.626;4.746;2023-07-16T08:07:29;100743.63;;;23.31;56.11
15314;BME280;7757;52.626;4.746;2023-07-16T08:09:56;100746.38;;;23.37;56.07
15314;BME280;7757;52.626;4.746;2023-07-16T08:12:21;100740.38;;;23.40;55.60
15314;BME280;7757;52.626;4.746;2023-07-16T08:14:49;100705.97;;;23.28;55.33
15314;BME280;7757;52.626;4.746;2023-07-16T08:17:15;100727.53;;;23.25;55.52
15314;BME280;7757;52.626;4.746;2023-07-16T08:19:42;100747.50;;;23.46;55.92
15314;BME280;7757;52.626;4.746;2023-07-16T08:22:10;100751.88;;;23.52;54.87
15314;BME280;7757;52.626;4.746;2023-07-16T08:24:37;100753.50;;;23.43;55.22
15314;BME280;7757;52.626;4.746;2023-07-16T08:27:03;100763.28;;;23.33;55.46
15314;BME280;7757;52.626;4.746;2023-07-16T08:29:29;100764.69;;;23.46;54.78
15314;BME280;7757;52.626;4.746;2023-07-16T08:31:54;100739.56;;;23.59;55.02
15314;BME280;7757;52.626;4.746;2023-07-16T08:34:20;100740.38;;;23.60;53.94
15314;BME280;7757;52.626;4.746;2023-07-16T08:36:45;100727.81;;;23.28;55.26
15314;BME280;7757;52.626;4.746;2023-07-16T08:39:10;100762.78;;;23.47;55.33
15314;BME280;7757;52.626;4.746;2023-07-16T08:41:38;100774.53;;;23.57;54.37
15314;BME280;7757;52.626;4.746;2023-07-16T08:44:04;100737.38;;;23.51;54.28
15314;BME280;7757;52.626;4.746;2023-07-16T08:46:31;100765.22;;;23.83;53.82
15314;BME280;7757;52.626;4.746;2023-07-16T08:48:57;100768.78;;;23.69;53.88
15314;BME280;7757;52.626;4.746;2023-07-16T08:51:26;100791.47;;;23.49;54.45
15314;BME280;7757;52.626;4.746;2023-07-16T08:53:53;100747.44;;;23.30;55.14
15314;BME280;7757;52.626;4.746;2023-07-16T08:56:18;100807.84;;;23.49;55.41
15314;BME280;7757;52.626;4.746;2023-07-16T08:58:44;100794.66;;;23.36;56.72
15314;BME280;7757;52.626;4.746;2023-07-16T09:01:13;100764.34;;;23.07;56.51
15314;BME280;7757;52.626;4.746;2023-07-16T09:03:39;100782.09;;;23.10;57.40
15314;BME280;7757;52.626;4.746;2023-07-16T09:06:05;100800.69;;;23.38;56.95
15314;BME280;7757;52.626;4.746;2023-07-16T09:08:31;100805.09;;;23.54;56.80
15314;BME280;7757;52.626;4.746;2023-07-16T09:10:57;100801.50;;;23.33;56.53
15314;BME280;7757;52.626;4.746;2023-07-16T09:13:26;100815.19;;;23.39;56.50
15314;BME280;7757;52.626;4.746;2023-07-16T09:15:57;100791.13;;;23.20;56.64
15314;BME280;7757;52.626;4.746;2023-07-16T09:18:26;100817.59;;;23.30;56.58
15314;BME280;7757;52.626;4.746;2023-07-16T09:20:58;100819.25;;;23.36;56.48
15314;BME280;7757;52.626;4.746;2023-07-16T09:23:27;100808.63;;;23.40;55.76
15314;BME280;7757;52.626;4.746;2023-07-16T09:25:54;100801.22;;;23.20;56.06
15314;BME280;7757;52.626;4.746;2023-07-16T09:28:20;100806.38;;;23.26;56.07
15314;BME280;7757;52.626;4.746;2023-07-16T09:30:47;100819.28;;;23.51;55.65
15314;BME280;7757;52.626;4.746;2023-07-16T09:33:15;100829.41;;;23.41;55.50
15314;BME280;7757;52.626;4.746;2023-07-16T09:35:41;100837.00;;;23.39;55.58
15314;BME280;7757;52.626;4.746;2023-07-16T09:38:08;100837.78;;;23.24;55.97
15314;BME280;7757;52.626;4.746;2023-07-16T09:40:39;100844.63;;;23.31;56.35
15314;BME280;7757;52.626;4.746;2023-07-16T09:43:08;100835.69;;;23.46;55.76
15314;BME280;7757;52.626;4.746;2023-07-16T09:45:36;100852.88;;;23.47;55.57
15314;BME280;7757;52.626;4.746;2023-07-16T09:48:05;100828.81;;;23.39;55.44
15314;BME280;7757;52.626;4.746;2023-07-16T09:50:34;100846.88;;;23.55;55.01
15314;BME280;7757;52.626;4.746;2023-07-16T09:53:05;100867.06;;;23.54;55.27
15314;BME280;7757;52.626;4.746;2023-07-16T09:55:33;100876.63;;;23.56;55.18
15314;BME280;7757;52.626;4.746;2023-07-16T09:58:00;100813.53;;;23.38;54.72
15314;BME280;7757;52.626;4.746;2023-07-16T10:00:28;100876.13;;;23.74;54.21
15314;BME280;7757;52.626;4.746;2023-07-16T10:02:54;100873.94;;;23.66;54.24
15314;BME280;7757;52.626;4.746;2023-07-16T10:05:27;100879.94;;;23.63;54.28
15314;BME280;7757;52.626;4.746;2023-07-16T10:07:59;100874.16;;;23.40;54.89
15314;BME280;7757;52.626;4.746;2023-07-16T10:10:41;100891.66;;;23.49;54.85
15314;BME280;7757;52.626;4.746;2023-07-16T10:13:08;100919.78;;;23.49;54.87
15314;BME280;7757;52.626;4.746;2023-07-16T10:15:36;100906.38;;;23.43;55.10
15314;BME280;7757;52.626;4.746;2023-07-16T10:18:01;100879.84;;;23.33;55.12
15314;BME280;7757;52.626;4.746;2023-07-16T10:20:32;100903.34;;;23.39;54.10
15314;BME280;7757;52.626;4.746;2023-07-16T10:22:58;100919.78;;;23.44;54.22
15314;BME280;7757;52.626;4.746;2023-07-16T10:25:27;100903.41;;;23.49;53.75
15314;BME280;7757;52.626;4.746;2023-07-16T10:27:53;100864.56;;;23.32;53.60
15314;BME280;7757;52.626;4.746;2023-07-16T10:30:20;100905.59;;;23.57;54.23
15314;BME280;7757;52.626;4.746;2023-07-16T10:32:46;100909.97;;;23.58;53.89
15314;BME280;7757;52.626;4.746;2023-07-16T10:35:14;100907.25;;;23.63;53.47
15314;BME280;7757;52.626;4.746;2023-07-16T10:37:40;100910.50;;;23.55;54.08
15314;BME280;7757;52.626;4.746;2023-07-16T10:40:09;100911.88;;;23.58;53.26
15314;BME280;7757;52.626;4.746;2023-07-16T10:42:37;100872.69;;;23.17;52.70
15314;BME280;7757;52.626;4.746;2023-07-16T10:45:04;100903.41;;;23.49;53.30
15314;BME280;7757;52.626;4.746;2023-07-16T10:47:36;100927.19;;;23.59;53.44
15314;BME280;7757;52.626;4.746;2023-07-16T10:50:09;100879.66;;;23.50;52.54
15314;BME280;7757;52.626;4.746;2023-07-16T10:52:35;100925.25;;;23.54;52.96
15314;BME280;7757;52.626;4.746;2023-07-16T10:55:02;100928.25;;;23.58;53.14
15314;BME280;7757;52.626;4.746;2023-07-16T10:57:28;100930.41;;;23.51;53.95
15314;BME280;7757;52.626;4.746;2023-07-16T10:59:55;100935.88;;;23.46;53.29
15314;BME280;7757;52.626;4.746;2023-07-16T11:02:22;100922.72;;;23.38;53.73
15314;BME280;7757;52.626;4.746;2023-07-16T11:04:49;100953.06;;;23.46;54.11
15314;BME280;7757;52.626;4.746;2023-07-16T11:07:15;100967.19;;;23.33;54.78
15314;BME280;7757;52.626;4.746;2023-07-16T11:09:46;100950.25;;;23.36;54.28
15314;BME280;7757;52.626;4.746;2023-07-16T11:12:14;100967.78;;;23.40;54.42
15314;BME280;7757;52.626;4.746;2023-07-16T11:14:47;100950.53;;;23.34;53.85
15314;BME280;7757;52.626;4.746;2023-07-16T11:17:13;100960.63;;;23.29;53.02
15314;BME280;7757;52.626;4.746;2023-07-16T11:19:40;100962.63;;;23.49;54.05
15314;BME280;7757;52.626;4.746;2023-07-16T11:22:11;100948.88;;;23.28;53.32
15314;BME280;7757;52.626;4.746;2023-07-16T11:24:41;100978.19;;;23.53;53.56
15314;BME280;7757;52.626;4.746;2023-07-16T11:29:55;100957.38;;;23.32;53.01
15314;BME280;7757;52.626;4.746;2023-07-16T11:32:31;100990.22;;;23.52;52.95
15314;BME280;7757;52.626;4.746;2023-07-16T11:35:00;100991.31;;;23.51;53.38
15314;BME280;7757;52.626;4.746;2023-07-16T11:37:26;100994.81;;;23.42;52.84
15314;BME280;7757;52.626;4.746;2023-07-16T11:39:58;100993.47;;;23.44;52.71
15314;BME280;7757;52.626;4.746;2023-07-16T11:42:28;100990.34;;;23.25;53.06
15314;BME280;7757;52.626;4.746;2023-07-16T11:44:56;100986.63;;;23.42;52.73
15314;BME280;7757;52.626;4.746;2023-07-16T11:47:21;101008.28;;;23.63;53.26
15314;BME280;7757;52.626;4.746;2023-07-16T11:49:48;101006.38;;;23.64;53.15
15314;BME280;7757;52.626;4.746;2023-07-16T11:52:15;101021.94;;;23.63;52.80
15314;BME280;7757;52.626;4.746;2023-07-16T11:54:45;101001.56;;;23.29;53.79
15314;BME280;7757;52.626;4.746;2023-07-16T11:57:10;101008.09;;;23.23;54.12
15314;BME280;7757;52.626;4.746;2023-07-16T11:59:36;101016.28;;;23.28;53.81
15314;BME280;7757;52.626;4.746;2023-07-16T12:02:02;101025.31;;;23.28;54.37
15314;BME280;7757;52.626;4.746;2023-07-16T12:04:28;101040.22;;;23.11;53.55
15314;BME280;7757;52.626;4.746;2023-07-16T12:06:54;101003.22;;;22.88;53.42
15314;BME280;7757;52.626;4.746;2023-07-16T12:09:20;100996.16;;;22.92;53.33
15314;BME280;7757;52.626;4.746;2023-07-16T12:11:45;101025.81;;;23.20;53.10
15314;BME280;7757;52.626;4.746;2023-07-16T12:14:12;100971.81;;;22.81;53.30
15314;BME280;7757;52.626;4.746;2023-07-16T12:16:39;101041.91;;;23.22;53.05
15314;BME280;7757;52.626;4.746;2023-07-16T12:19:08;100981.66;;;22.82;53.53
15314;BME280;7757;52.626;4.746;2023-07-16T12:21:34;101061.47;;;23.09;53.12
15314;BME280;7757;52.626;4.746;2023-07-16T12:23:59;101044.31;;;23.08;53.54
15314;BME280;7757;52.626;4.746;2023-07-16T12:26:25;101051.69;;;23.18;52.84
15314;BME280;7757;52.626;4.746;2023-07-16T12:28:50;101044.31;;;23.08;53.11
15314;BME280;7757;52.626;4.746;2023-07-16T12:31:16;101035.50;;;23.01;52.83
15314;BME280;7757;52.626;4.746;2023-07-16T12:33:45;101042.66;;;23.07;53.58
15314;BME280;7757;52.626;4.746;2023-07-16T12:36:14;101048.34;;;23.06;53.40
15314;BME280;7757;52.626;4.746;2023-07-16T12:38:40;101066.78;;;23.25;52.83
15314;BME280;7757;52.626;4.746;2023-07-16T12:41:06;101047.34;;;23.17;53.01
15314;BME280;7757;52.626;4.746;2023-07-16T12:43:31;101067.56;;;23.21;52.49
15314;BME280;7757;52.626;4.746;2023-07-16T12:46:00;101072.22;;;23.20;52.74
15314;BME280;7757;52.626;4.746;2023-07-16T12:48:28;101020.94;;;22.86;52.45
15314;BME280;7757;52.626;4.746;2023-07-16T12:50:55;101051.88;;;23.01;52.99
15314;BME280;7757;52.626;4.746;2023-07-16T12:53:21;101085.56;;;23.22;52.60
15314;BME280;7757;52.626;4.746;2023-07-16T12:55:46;100994.84;;;22.63;52.45
15314;BME280;7757;52.626;4.746;2023-07-16T12:58:12;101060.06;;;23.01;52.65
15314;BME280;7757;52.626;4.746;2023-07-16T13:00:38;101092.91;;;23.16;52.49
15314;BME280;7757;52.626;4.746;2023-07-16T13:03:04;101086.38;;;23.17;52.87
15314;BME280;7757;52.626;4.746;2023-07-16T13:05:30;101056.47;;;22.96;52.59
15314;BME280;7757;52.626;4.746;2023-07-16T13:07:57;101094.13;;;23.35;51.88
15314;BME280;7757;52.626;4.746;2023-07-16T13:10:23;101093.00;;;23.31;52.52